Time;durP1;ratioP1;P1;durP2;ratioP2;P2;SDS_P1;SDS_P2;PMS_P1;PMS_P2;Temp;Humidity;BMP_temperature;BMP_pressure;BME280_temperature;BME280_humidity;BME280_pressure;Samples;Min_cycle;Max_cycle;Signal;HPM_P1;HPM_P2
2023/03/30 00:02:04;;;;;;;6.22;3.13;;;;;;;19.03;46.93;101765.44;5070039;28;20044;-46
2023/03/30 00:04:33;;;;;;;6.00;2.60;;;;;;;19.02;46.82;101764.59;5070201;28;20052;-47
2023/03/30 00:07:01;;;;;;;4.40;2.63;;;;;;;19.03;46.47;101773.50;5070165;28;20044;-47
2023/03/30 00:09:29;;;;;;;4.03;3.05;;;;;;;19.02;46.93;101769.09;5070067;28;20049;-47
2023/03/30 00:12:02;;;;;;;4.72;2.33;;;;;;;19.02;46.60;101769.97;5069996;28;20053;-47
2023/03/30 00:14:29;;;;;;;4.93;2.90;;;;;;;19.02;46.57;101766.44;5069956;28;20044;-46
2023/03/30 00:16:56;;;;;;;4.30;2.95;;;;;;;19.02;46.44;101772.66;5069825;28;20052;-50
2023/03/30 00:19:25;;;;;;;5.95;3.00;;;;;;;19.02;46.55;101772.66;5069836;28;20056;-46
2023/03/30 00:21:52;;;;;;;4.63;2.97;;;;;;;19.02;46.43;101769.97;5069742;28;20048;-48
2023/03/30 00:24:20;;;;;;;4.32;2.75;;;;;;;19.02;46.38;101761.91;5069516;28;20422;-46
2023/03/30 00:26:47;;;;;;;5.80;2.97;;;;;;;19.02;46.44;101764.59;5069285;28;20049;-48
2023/03/30 00:29:16;;;;;;;4.75;2.80;;;;;;;19.01;46.65;101765.56;5067566;28;20063;-47
2023/03/30 00:31:43;;;;;;;4.13;2.70;;;;;;;19.03;46.70;101770.81;5067437;28;20049;-48
2023/03/30 00:34:10;;;;;;;5.15;2.80;;;;;;;19.02;46.87;101771.78;5069389;28;20045;-46
2023/03/30 00:36:38;;;;;;;5.75;2.97;;;;;;;19.01;46.67;101764.72;5054451;28;20052;-47
2023/03/30 00:39:07;;;;;;;7.22;3.00;;;;;;;19.02;46.69;101766.44;5056220;28;20053;-50
2023/03/30 00:41:35;;;;;;;5.40;2.95;;;;;;;19.02;46.45;101764.59;5056112;28;20045;-47
2023/03/30 00:44:05;;;;;;;3.80;2.60;;;;;;;19.01;46.40;101762.88;5056051;28;20151;-47
2023/03/30 00:46:33;;;;;;;5.03;2.97;;;;;;;19.01;46.38;101768.25;5054921;28;20068;-46
2023/03/30 00:49:09;;;;;;;4.28;2.78;;;;;;;19.02;46.45;101769.09;5054891;28;20060;-46
2023/03/30 00:51:39;;;;;;;4.80;2.80;;;;;;;19.01;46.17;101770.09;5055990;28;20052;-46
2023/03/30 00:54:12;;;;;;;6.80;2.92;;;;;;;19.01;46.29;101770.94;5056010;28;20074;-47
2023/03/30 00:56:39;;;;;;;;;;;;;;;19.02;46.20;101761.06;5055199;28;20052;-47
2023/03/30 00:59:08;;;;;;;6.50;2.78;;;;;;;19.01;46.33;101760.19;5055895;28;19920;-48
2023/03/30 01:01:37;;;;;;;5.80;2.72;;;;;;;19.01;46.31;101764.72;5055689;28;20056;-48
2023/03/30 01:04:08;;;;;;;4.32;2.72;;;;;;;19.01;46.38;101767.41;5055674;28;20383;-47
2023/03/30 01:06:38;;;;;;;4.57;3.08;;;;;;;19.00;46.24;101769.22;5055815;28;20041;-49
2023/03/30 01:09:07;;;;;;;6.05;2.63;;;;;;;19.01;46.21;101767.41;5055640;28;20049;-46
2023/03/30 01:11:35;;;;;;;4.28;2.70;;;;;;;19.01;46.20;101764.72;5054354;28;20053;-47
2023/03/30 01:14:09;;;;;;;4.55;2.58;;;;;;;19.01;46.14;101762.88;5055462;28;20387;-47
2023/03/30 01:16:40;;;;;;;5.60;3.20;;;;;;;19.00;46.32;101746.91;5054235;28;20419;-48
2023/03/30 01:19:37;;;;;;;4.63;2.83;;;;;;;19.01;46.16;101745.94;5055461;28;20045;-48
2023/03/30 01:22:26;;;;;;;4.38;2.75;;;;;;;19.01;46.22;101743.25;5055434;28;20490;-46
2023/03/30 01:25:17;;;;;;;4.28;2.47;;;;;;;19.01;46.12;101746.78;5055162;28;20060;-46
2023/03/30 01:28:22;;;;;;;4.70;2.35;;;;;;;19.00;46.22;101738.84;5053820;28;20060;-48
2023/03/30 01:30:52;;;;;;;4.20;2.88;;;;;;;18.99;45.97;101737.97;5053698;28;20059;-47
2023/03/30 01:33:29;;;;;;;6.10;3.08;;;;;;;19.00;46.04;101738.84;5055236;28;20049;-46
2023/03/30 01:36:10;;;;;;;3.63;2.70;;;;;;;18.99;45.91;101740.66;5055266;28;20045;-49
2023/03/30 01:38:43;;;;;;;4.05;2.65;;;;;;;18.99;45.93;101743.34;5055106;28;20048;-47
2023/03/30 01:41:21;;;;;;;3.40;2.22;;;;;;;19.00;46.10;101736.16;5055031;28;20049;-46
2023/03/30 01:44:06;;;;;;;5.07;2.97;;;;;;;19.00;45.99;101734.34;5054839;28;20049;-47
2023/03/30 01:46:44;;;;;;;5.72;2.90;;;;;;;19.00;45.97;101736.16;5052822;28;20052;-48
2023/03/30 01:49:26;;;;;;;3.58;2.53;;;;;;;18.99;45.83;101739.78;5054926;28;20056;-46
2023/03/30 01:52:01;;;;;;;3.53;2.05;;;;;;;18.99;45.92;101729.06;5053750;28;20048;-46
2023/03/30 01:54:35;;;;;;;4.20;2.42;;;;;;;18.98;45.92;101722.84;5054780;28;20041;-48
2023/03/30 01:57:11;;;;;;;6.15;2.75;;;;;;;18.99;45.81;101723.69;5053413;28;20365;-47
2023/03/30 01:59:40;;;;;;;4.78;2.80;;;;;;;18.99;45.90;101726.38;5052733;28;20049;-48
2023/03/30 02:02:12;;;;;;;5.13;2.40;;;;;;;18.98;45.81;101722.00;5054385;28;20041;-51
2023/03/30 02:04:44;;;;;;;4.78;2.85;;;;;;;18.98;45.98;101728.22;5052877;28;20045;-50
2023/03/30 02:07:17;;;;;;;4.32;2.50;;;;;;;18.98;45.83;101725.53;5054434;28;20048;-49
2023/03/30 02:09:48;;;;;;;10.30;2.95;;;;;;;18.98;45.95;101725.53;5054508;28;20045;-49
2023/03/30 02:12:17;;;;;;;4.35;3.00;;;;;;;18.98;45.77;101724.66;5053317;28;20495;-48
2023/03/30 02:14:48;;;;;;;5.40;2.88;;;;;;;18.99;45.93;101723.69;5052971;28;20138;-50
2023/03/30 02:17:27;;;;;;;4.13;2.88;;;;;;;18.99;46.01;101729.91;5053298;28;20491;-50
2023/03/30 02:19:58;;;;;;;3.60;2.38;;;;;;;18.98;45.95;101740.78;5052507;28;20057;-47
2023/03/30 02:22:28;;;;;;;4.60;2.58;;;;;;;18.98;45.84;101738.94;5054192;28;20049;-48
2023/03/30 02:24:57;;;;;;;4.13;2.35;;;;;;;18.98;45.91;101747.00;5053871;28;20521;-48
2023/03/30 02:27:26;;;;;;;4.35;2.55;;;;;;;18.98;45.88;101735.41;5053838;28;20049;-51
2023/03/30 02:29:55;;;;;;;3.72;2.60;;;;;;;18.98;46.02;101738.09;5054067;28;20068;-49
2023/03/30 02:32:26;;;;;;;8.15;2.75;;;;;;;18.98;45.92;101738.09;5054041;28;20076;-47
2023/03/30 02:35:03;;;;;;;3.92;2.60;;;;;;;18.97;45.69;101733.69;5052461;28;20526;-48
2023/03/30 02:38:04;;;;;;;5.53;2.80;;;;;;;18.97;45.81;101728.34;5053936;28;20044;-47
2023/03/30 02:40:36;;;;;;;4.68;2.58;;;;;;;18.97;45.81;101731.88;5052845;28;20472;-47
2023/03/30 02:43:20;;;;;;;3.90;2.55;;;;;;;18.97;45.79;101731.88;5052831;28;20052;-47
2023/03/30 02:45:48;;;;;;;4.65;2.28;;;;;;;18.96;45.64;101730.16;5052829;28;20491;-46
2023/03/30 02:48:22;;;;;;;5.88;3.08;;;;;;;18.96;45.77;101724.78;5052761;28;20049;-48
2023/03/30 02:50:55;;;;;;;3.53;2.40;;;;;;;18.96;45.86;101723.94;5052375;28;20055;-48
2023/03/30 02:53:51;;;;;;;3.88;2.38;;;;;;;18.97;45.77;101710.41;5053482;28;20048;-51
2023/03/30 02:57:09;;;;;;;3.75;2.17;;;;;;;18.97;45.81;101720.28;5051902;28;20049;-48
2023/03/30 02:59:55;;;;;;;4.13;2.42;;;;;;;18.97;45.82;101712.22;5053288;28;20045;-46
2023/03/30 03:02:57;;;;;;;5.68;2.67;;;;;;;18.98;45.84;101703.19;5052046;28;20524;-46
2023/03/30 03:05:31;;;;;;;4.45;2.50;;;;;;;18.96;45.99;101700.63;5052172;28;20037;-47
2023/03/30 03:08:13;;;;;;;5.05;2.92;;;;;;;18.97;46.02;101712.22;5051984;28;20503;-48
2023/03/30 03:10:42;;;;;;;3.95;2.28;;;;;;;18.96;46.00;101711.38;5052061;28;20510;-49
2023/03/30 03:13:13;;;;;;;4.88;2.45;;;;;;;18.97;46.05;101709.53;5053148;28;20041;-47
2023/03/30 03:15:44;;;;;;;4.10;2.47;;;;;;;18.96;45.97;101697.97;5052493;28;20506;-47
2023/03/30 03:18:12;;;;;;;4.15;2.35;;;;;;;18.97;46.06;101693.44;5053597;28;20053;-46
2023/03/30 03:20:41;;;;;;;4.05;2.30;;;;;;;18.97;46.15;101688.06;5052294;28;20056;-46
2023/03/30 03:23:09;;;;;;;3.72;2.28;;;;;;;18.96;46.20;101686.38;5051834;28;20056;-46
2023/03/30 03:25:44;;;;;;;4.63;3.03;;;;;;;18.96;46.08;101686.38;5052261;28;20049;-49
2023/03/30 03:28:14;;;;;;;4.43;2.70;;;;;;;18.96;46.25;101686.38;5052198;28;20411;-47
2023/03/30 03:30:47;;;;;;;4.60;2.60;;;;;;;18.96;46.10;101689.06;5052338;28;20484;-48
2023/03/30 03:33:19;;;;;;;8.70;2.50;;;;;;;18.95;46.07;101688.16;5051938;28;20369;-47
2023/03/30 03:35:58;;;;;;;5.40;2.45;;;;;;;18.96;46.03;101681.00;5052238;28;20041;-49
2023/03/30 03:38:27;;;;;;;4.78;2.58;;;;;;;18.96;45.99;101689.91;5052202;28;20491;-48
2023/03/30 03:40:58;;;;;;;4.85;2.40;;;;;;;18.96;46.06;101675.63;5051970;28;20045;-48
2023/03/30 03:43:26;;;;;;;3.75;2.47;;;;;;;18.95;46.15;101682.81;5051241;28;20522;-46
2023/03/30 03:45:54;;;;;;;3.97;2.20;;;;;;;18.95;46.05;101682.81;5053076;28;20041;-47
2023/03/30 03:48:23;;;;;;;3.78;2.47;;;;;;;18.96;46.04;101686.38;5053010;28;20059;-49
2023/03/30 03:50:54;;;;;;;5.07;2.42;;;;;;;18.95;46.03;101685.47;5051253;28;20049;-50
2023/03/30 03:53:23;;;;;;;4.05;2.45;;;;;;;18.95;46.03;101673.91;5051815;28;20053;-48
2023/03/30 03:55:54;;;;;;;4.57;2.25;;;;;;;18.94;45.99;101674.88;5051399;28;20183;-48
2023/03/30 03:58:23;;;;;;;4.35;2.30;;;;;;;18.94;45.92;101675.72;5051953;28;20064;-48
2023/03/30 04:00:50;;;;;;;5.38;2.30;;;;;;;18.94;46.13;101674.88;5052968;28;20052;-48
2023/03/30 04:03:18;;;;;;;4.28;2.40;;;;;;;18.95;46.16;101679.25;5051615;28;20045;-53
2023/03/30 04:05:45;;;;;;;4.47;2.30;;;;;;;18.94;45.87;101686.47;5052453;28;20052;-51
2023/03/30 04:08:13;;;;;;;3.25;2.10;;;;;;;18.94;46.10;101686.47;5051199;28;20064;-52
2023/03/30 04:10:40;;;;;;;5.43;2.70;;;;;;;18.93;46.03;101678.53;5053432;28;20467;-49
2023/03/30 04:13:26;;;;;;;4.07;2.20;;;;;;;18.93;45.96;101673.16;5063594;28;20056;-49
2023/03/30 04:16:13;;;;;;;3.83;2.45;;;;;;;18.93;45.97;101683.91;5055281;28;20052;-46
2023/03/30 04:19:03;;;;;;;4.50;2.80;;;;;;;18.95;46.19;101684.63;5056388;28;20048;-47
2023/03/30 04:21:51;;;;;;;3.85;2.50;;;;;;;18.93;46.13;101684.75;5056337;28;20049;-46
2023/03/30 04:24:28;;;;;;;5.30;2.20;;;;;;;18.93;46.21;101687.44;5057924;28;20064;-47
2023/03/30 04:27:15;;;;;;;3.78;2.10;;;;;;;18.94;46.38;101683.78;5062992;28;20056;-45
2023/03/30 04:30:02;;;;;;;4.78;2.25;;;;;;;18.94;46.32;101693.66;5063349;28;20056;-46
2023/03/30 04:33:01;;;;;;;3.55;2.20;;;;;;;18.94;46.29;101693.66;5062954;28;20060;-45
2023/03/30 04:35:52;;;;;;;4.43;2.17;;;;;;;18.93;46.37;101679.38;5058643;28;20052;-48
2023/03/30 04:38:37;;;;;;;3.95;2.40;;;;;;;18.94;46.21;101680.25;5041015;28;20049;-48
2023/03/30 04:41:18;;;;;;;4.35;2.42;;;;;;;18.93;46.39;101675.84;5055114;28;20060;-47
2023/03/30 04:43:45;;;;;;;4.20;2.70;;;;;;;18.93;46.22;101675.84;5056168;28;20061;-48
2023/03/30 04:46:47;;;;;;;5.95;2.60;;;;;;;18.94;46.17;101677.56;5054207;28;20372;-47
2023/03/30 04:49:41;;;;;;;3.45;2.45;;;;;;;18.94;46.29;101685.59;5053380;28;20067;-47
2023/03/30 04:52:37;;;;;;;4.05;2.15;;;;;;;18.93;46.34;101681.22;5055580;28;20052;-49
2023/03/30 04:55:23;;;;;;;4.80;2.25;;;;;;;18.92;46.24;101674.09;5054227;28;20415;-46
2023/03/30 04:58:02;;;;;;;6.72;2.42;;;;;;;18.92;46.35;101685.72;5054204;28;20064;-47
2023/03/30 05:00:54;;;;;;;4.68;2.55;;;;;;;18.92;46.29;101685.72;5064479;28;20061;-48
2023/03/30 05:03:54;;;;;;;3.63;1.95;;;;;;;18.92;46.39;101680.34;5054271;28;20076;-47
2023/03/30 05:06:48;;;;;;;4.50;2.63;;;;;;;18.91;46.35;101694.72;5055288;28;20403;-47
2023/03/30 05:09:22;;;;;;;3.80;2.40;;;;;;;18.91;46.37;101692.03;5062307;28;20053;-47
2023/03/30 05:12:19;;;;;;;5.88;2.10;;;;;;;18.91;46.29;101689.34;5053932;28;20491;-47
2023/03/30 05:15:07;;;;;;;6.18;2.28;;;;;;;18.90;46.38;101684.97;5051353;28;20057;-47
2023/03/30 05:17:51;;;;;;;3.97;2.00;;;;;;;18.91;46.32;101685.81;5054046;28;20072;-47
2023/03/30 05:20:37;;;;;;;4.10;1.95;;;;;;;18.91;46.30;101683.13;5054236;28;20053;-48
2023/03/30 05:23:23;;;;;;;3.42;2.30;;;;;;;18.91;46.24;101693.84;5060082;28;20056;-47
2023/03/30 05:25:51;;;;;;;4.03;2.25;;;;;;;18.89;46.14;101680.56;5055260;28;20045;-47
2023/03/30 05:28:37;;;;;;;4.13;1.90;;;;;;;18.89;46.29;101680.56;5062134;28;20051;-47
2023/03/30 05:31:19;;;;;;;4.85;2.63;;;;;;;18.89;46.15;101666.28;5054165;28;20052;-48
2023/03/30 05:34:09;;;;;;;4.55;2.13;;;;;;;18.88;46.21;101677.97;5054128;28;20060;-48
2023/03/30 05:36:48;;;;;;;2.90;1.88;;;;;;;18.89;46.26;101687.75;5053973;28;20056;-47
2023/03/30 05:39:34;;;;;;;4.53;2.40;;;;;;;18.88;46.11;101681.53;5061678;28;20475;-50
2023/03/30 05:42:37;;;;;;;6.00;1.92;;;;;;;18.90;46.31;101686.78;5033365;28;20176;-46
2023/03/30 05:45:24;;;;;;;3.08;1.83;;;;;;;18.90;46.12;101684.09;5053337;28;20048;-48
2023/03/30 05:48:02;;;;;;;4.85;2.15;;;;;;;18.88;46.22;101683.34;5053911;28;20049;-47
2023/03/30 05:50:41;;;;;;;3.33;2.20;;;;;;;18.88;46.22;101678.84;5052706;28;20053;-47
2023/03/30 05:53:18;;;;;;;3.97;1.92;;;;;;;18.89;46.18;101691.31;5053261;28;20045;-47
2023/03/30 05:56:06;;;;;;;4.22;2.50;;;;;;;18.88;46.35;101696.75;5061124;28;20052;-49
2023/03/30 05:58:50;;;;;;;4.93;2.70;;;;;;;18.88;46.21;101697.63;5054602;28;20057;-48
2023/03/30 06:01:41;;;;;;;5.90;2.20;;;;;;;18.89;46.25;101693.13;5053148;28;20072;-47
2023/03/30 06:04:08;;;;;;;6.65;2.67;;;;;;;18.88;46.23;101691.38;5052575;28;20052;-52
2023/03/30 06:06:38;;;;;;;5.63;2.25;;;;;;;18.88;46.32;101684.22;5053235;28;20056;-49
2023/03/30 06:09:09;;;;;;;7.78;3.25;;;;;;;18.89;46.42;101696.66;5053450;28;20052;-52
2023/03/30 06:11:37;;;;;;;4.53;2.20;;;;;;;18.90;46.49;101700.19;5052694;28;20056;-48
2023/03/30 06:14:18;;;;;;;4.32;2.28;;;;;;;18.90;46.62;101706.41;5053523;28;20057;-49
2023/03/30 06:17:06;;;;;;;5.15;2.35;;;;;;;18.91;46.42;101708.13;5053266;28;20056;-47
2023/03/30 06:19:34;;;;;;;4.38;2.30;;;;;;;18.92;46.32;101717.03;5053033;28;20059;-50
2023/03/30 06:22:01;;;;;;;5.70;2.30;;;;;;;18.91;46.24;101720.69;5052870;28;20610;-47
2023/03/30 06:24:37;;;;;;;4.07;2.17;;;;;;;18.91;46.40;101715.31;5052782;28;20057;-48
2023/03/30 06:27:07;;;;;;;9.52;2.38;;;;;;;18.91;46.30;101705.44;5052463;28;20569;-47
2023/03/30 06:29:35;;;;;;;6.45;2.92;;;;;;;18.91;46.36;101691.19;5053104;28;20060;-49
2023/03/30 06:32:03;;;;;;;4.00;2.30;;;;;;;18.90;46.20;101684.09;5052730;28;20399;-47
2023/03/30 06:35:02;;;;;;;5.45;2.63;;;;;;;18.91;46.27;101685.81;5054717;28;20507;-50
2023/03/30 06:37:35;;;;;;;3.90;2.38;;;;;;;18.90;46.07;101694.84;5052846;28;20045;-48
2023/03/30 06:40:07;;;;;;;5.80;2.40;;;;;;;18.92;46.21;101706.31;5052665;28;20059;-48
2023/03/30 06:42:35;;;;;;;4.33;2.33;;;;;;;18.92;46.11;101717.03;5053929;28;20049;-47
2023/03/30 06:45:16;;;;;;;5.88;2.50;;;;;;;18.92;46.11;101717.94;5052680;28;20060;-47
2023/03/30 06:47:44;;;;;;;4.70;2.42;;;;;;;18.92;45.90;101714.34;5036029;28;20499;-48
2023/03/30 06:50:13;;;;;;;6.43;3.25;;;;;;;18.93;46.03;101718.78;5052326;28;20048;-46
2023/03/30 06:52:58;;;;;;;8.60;3.70;;;;;;;18.94;45.43;101715.97;5059319;28;20056;-48
2023/03/30 06:55:32;;;;;;;7.25;3.22;;;;;;;18.94;45.64;101723.16;5052005;28;20049;-50
2023/03/30 06:58:00;;;;;;;9.85;4.47;;;;;;;18.96;45.67;101723.94;5052179;28;20048;-47
2023/03/30 07:00:28;;;;;;;10.52;4.50;;;;;;;18.95;45.64;101723.06;5052407;28;20049;-49
2023/03/30 07:03:33;;;;;;;4.82;2.90;;;;;;;18.96;46.28;101715.88;5053427;28;20052;-48
2023/03/30 07:06:15;;;;;;;8.52;3.90;;;;;;;18.97;46.26;101731.00;5052621;28;20064;-51
2023/03/30 07:08:44;;;;;;;12.25;6.40;;;;;;;18.98;45.53;101722.84;5052422;28;20059;-49
2023/03/30 07:11:17;;;;;;;10.85;6.93;;;;;;;18.98;45.39;101722.00;5052545;28;20056;-47
2023/03/30 07:13:44;;;;;;;6.85;4.82;;;;;;;18.97;45.46;101726.50;5052373;28;20053;-51
2023/03/30 07:16:12;;;;;;;12.25;5.00;;;;;;;18.98;45.57;101732.72;5051206;28;20060;-48
2023/03/30 07:18:39;;;;;;;12.27;5.53;;;;;;;18.99;45.50;101735.28;5035219;28;20052;-48
2023/03/30 07:21:07;;;;;;;10.32;5.78;;;;;;;19.00;45.24;101738.84;5052100;28;20491;-47
2023/03/30 07:23:39;;;;;;;13.40;5.97;;;;;;;19.00;45.26;101736.16;5052709;28;20500;-49
2023/03/30 07:26:09;;;;;;;7.80;5.80;;;;;;;19.01;45.38;101737.88;5051849;28;20056;-47
2023/03/30 07:28:52;;;;;;;9.23;6.43;;;;;;;19.01;45.33;101743.25;5052658;28;20384;-48
2023/03/30 07:31:23;;;;;;;10.63;6.07;;;;;;;19.02;45.08;101750.31;5051961;28;20052;-48
2023/03/30 07:33:50;;;;;;;7.97;4.80;;;;;;;19.02;45.63;101751.19;5051733;28;20060;-48
2023/03/30 07:36:22;;;;;;;7.28;4.70;;;;;;;19.03;45.58;101755.56;5052098;28;20052;-49
2023/03/30 07:38:50;;;;;;;8.18;4.90;;;;;;;19.05;45.79;101754.63;5035585;28;20522;-47
2023/03/30 07:41:18;;;;;;;7.10;3.92;;;;;;;19.06;45.77;101756.34;5051508;28;20056;-48
2023/03/30 07:43:50;;;;;;;5.93;3.72;;;;;;;19.07;45.79;101752.69;5051950;28;20053;-48
2023/03/30 07:46:17;;;;;;;6.10;3.40;;;;;;;19.08;45.84;101749.03;5054590;28;20057;-46
2023/03/30 07:48:48;;;;;;;8.07;4.32;;;;;;;19.09;45.63;101761.50;5055573;28;20059;-47
2023/03/30 07:51:16;;;;;;;10.45;4.88;;;;;;;19.08;45.63;101760.66;5055727;28;20064;-46
2023/03/30 07:54:11;;;;;;;7.38;4.63;;;;;;;19.09;45.81;101758.81;5054746;28;20612;-47
2023/03/30 07:56:59;;;;;;;9.13;4.43;;;;;;;19.10;45.74;101761.38;5055866;28;20049;-48
2023/03/30 07:59:28;;;;;;;7.10;3.58;;;;;;;19.11;45.65;101759.56;5055714;28;20052;-47
2023/03/30 08:02:04;;;;;;;6.90;3.85;;;;;;;19.12;45.85;101758.56;5055220;28;20053;-49
2023/03/30 08:04:58;;;;;;;5.22;3.20;;;;;;;19.14;45.80;101753.97;5054666;28;20057;-52
2023/03/30 08:07:35;;;;;;;6.03;3.90;;;;;;;19.15;46.02;101743.13;5054957;28;20048;-52
2023/03/30 08:10:12;;;;;;;7.13;3.50;;;;;;;19.17;46.00;101743.03;5054719;28;20056;-52
2023/03/30 08:12:40;;;;;;;6.90;3.92;;;;;;;19.17;45.98;101738.50;5056305;28;20049;-48
2023/03/30 08:15:08;;;;;;;8.85;4.07;;;;;;;19.18;45.82;101739.38;5054952;28;20061;-49
2023/03/30 08:17:36;;;;;;;8.27;3.90;;;;;;;19.19;45.95;101735.72;5056411;28;20045;-49
2023/03/30 08:20:09;;;;;;;6.30;4.00;;;;;;;19.19;46.02;101741.06;5056443;28;20422;-47
2023/03/30 08:22:36;;;;;;;6.90;3.90;;;;;;;19.19;46.10;101739.25;5056190;28;20064;-48
2023/03/30 08:25:04;;;;;;;6.68;3.75;;;;;;;19.19;45.91;101736.56;5055588;28;20057;-46
2023/03/30 08:27:31;;;;;;;6.40;3.63;;;;;;;19.19;46.01;101731.19;5055810;28;20041;-47
2023/03/30 08:29:59;;;;;;;7.07;3.80;;;;;;;19.19;46.07;101731.19;5055892;28;20045;-48
2023/03/30 08:32:26;;;;;;;6.97;3.67;;;;;;;19.19;45.98;101731.19;5055792;28;20052;-48
2023/03/30 08:34:53;;;;;;;9.05;3.95;;;;;;;19.19;45.99;101725.81;5056028;28;20059;-46
2023/03/30 08:37:21;;;;;;;6.65;3.45;;;;;;;19.18;46.21;101729.50;5055771;28;20037;-47
2023/03/30 08:39:49;;;;;;;5.28;3.75;;;;;;;19.18;46.03;101723.25;5055870;28;20052;-47
2023/03/30 08:42:38;;;;;;;6.70;3.65;;;;;;;19.19;46.25;101724.97;5055968;28;20068;-48
2023/03/30 08:45:09;;;;;;;5.57;3.20;;;;;;;19.19;45.84;101730.34;5054329;28;20056;-46
2023/03/30 08:47:41;;;;;;;5.40;3.55;;;;;;;19.18;46.04;101726.81;5055694;28;20507;-47
2023/03/30 08:50:21;;;;;;;5.72;3.67;;;;;;;19.19;45.91;101733.88;5055895;28;20375;-48
2023/03/30 08:52:51;;;;;;;7.07;3.38;;;;;;;19.18;46.12;101726.81;5055846;28;20048;-49
2023/03/30 08:55:23;;;;;;;6.13;3.38;;;;;;;19.19;46.20;101725.81;5055694;28;20060;-45
2023/03/30 08:58:12;;;;;;;6.55;3.00;;;;;;;19.18;46.24;101729.50;5055485;28;20049;-48
2023/03/30 09:00:51;;;;;;;8.93;3.80;;;;;;;19.19;46.34;101730.34;5055732;28;20064;-46
2023/03/30 09:03:56;;;;;;;7.20;3.58;;;;;;;19.20;46.43;101729.38;5055412;28;20056;-47
2023/03/30 09:06:46;;;;;;;5.13;2.90;;;;;;;19.21;46.49;101717.69;5055611;28;20037;-47
2023/03/30 09:09:26;;;;;;;6.78;3.72;;;;;;;19.21;46.79;101710.50;5055299;28;20044;-48
2023/03/30 09:12:05;;;;;;;7.32;3.88;;;;;;;19.22;46.76;101719.41;5055581;28;20067;-51
2023/03/30 09:14:39;;;;;;;6.90;3.33;;;;;;;19.23;46.68;101721.97;5054213;28;20060;-46
2023/03/30 09:17:20;;;;;;;6.30;3.63;;;;;;;19.24;46.61;101721.00;5055066;28;20056;-47
2023/03/30 09:19:56;;;;;;;9.77;3.67;;;;;;;19.24;46.57;101715.66;5055165;28;20495;-46
2023/03/30 09:22:31;;;;;;;7.15;3.45;;;;;;;19.25;46.62;101711.97;5053826;28;20053;-49
2023/03/30 09:24:58;;;;;;;5.93;3.20;;;;;;;19.26;46.66;101710.16;5054057;28;20088;-47
2023/03/30 09:27:44;;;;;;;5.18;3.13;;;;;;;19.25;46.56;101709.28;5054076;28;20056;-47
2023/03/30 09:30:19;;;;;;;5.75;3.30;;;;;;;19.26;46.56;101718.22;5055028;28;20049;-47
2023/03/30 09:32:59;;;;;;;6.38;3.00;;;;;;;19.27;46.70;101714.53;5055130;28;20049;-47
2023/03/30 09:35:39;;;;;;;5.75;3.20;;;;;;;19.28;46.61;101724.31;5055434;28;20045;-50
2023/03/30 09:38:11;;;;;;;7.72;2.88;;;;;;;19.28;46.79;101724.31;5054892;28;20059;-48
2023/03/30 09:41:07;;;;;;;5.15;3.05;;;;;;;19.28;46.46;101724.31;5054838;28;20143;-46
2023/03/30 09:43:44;;;;;;;5.00;2.50;;;;;;;19.29;46.82;101725.19;5054845;28;20056;-47
2023/03/30 09:46:14;;;;;;;6.00;3.10;;;;;;;19.28;46.75;101727.00;5054715;28;20499;-46
2023/03/30 09:48:43;;;;;;;4.00;2.78;;;;;;;19.29;46.72;101730.56;5054508;28;20403;-46
2023/03/30 09:51:19;;;;;;;7.93;2.55;;;;;;;19.29;46.89;101727.88;5053248;28;20049;-50
2023/03/30 09:53:50;;;;;;;6.55;3.10;;;;;;;19.29;46.68;101725.19;5054562;28;20048;-48
2023/03/30 09:56:27;;;;;;;4.60;2.55;;;;;;;19.29;46.80;101719.81;5054523;28;20049;-47
2023/03/30 09:58:55;;;;;;;4.85;2.58;;;;;;;19.27;46.92;101712.72;5054453;28;20041;-49
2023/03/30 10:01:36;;;;;;;5.75;2.78;;;;;;;19.28;46.90;101716.25;5054008;28;20048;-52
2023/03/30 10:04:09;;;;;;;5.50;3.13;;;;;;;19.28;46.63;101713.56;5054020;28;20045;-51
2023/03/30 10:06:46;;;;;;;4.70;2.92;;;;;;;19.29;46.68;101714.44;5053407;28;20065;-47
2023/03/30 10:09:16;;;;;;;6.18;2.88;;;;;;;19.30;46.90;101705.41;5053174;28;20056;-49
2023/03/30 10:11:47;;;;;;;5.13;2.65;;;;;;;19.28;46.96;101697.47;5054239;28;20068;-48
2023/03/30 10:14:30;;;;;;;5.28;2.97;;;;;;;19.29;47.03;101699.19;5054192;28;20053;-47
2023/03/30 10:16:58;;;;;;;;;;;;;;;19.27;46.84;101699.28;5054630;28;20403;-47
2023/03/30 10:19:26;;;;;;;4.32;2.50;;;;;;;19.28;47.01;101694.78;5054088;28;19921;-48
2023/03/30 10:21:58;;;;;;;4.50;2.65;;;;;;;19.29;46.93;101698.34;5053945;28;20055;-48
2023/03/30 10:24:28;;;;;;;4.75;2.67;;;;;;;19.29;46.67;101698.34;5053869;28;20053;-46
2023/03/30 10:27:08;;;;;;;4.50;2.60;;;;;;;19.29;46.87;101696.53;5053626;28;20047;-50
2023/03/30 10:29:36;;;;;;;7.28;2.78;;;;;;;19.30;46.86;101692.00;5053639;28;20037;-47
2023/03/30 10:32:16;;;;;;;5.95;2.65;;;;;;;19.31;46.96;101674.91;5053725;28;20049;-51
2023/03/30 10:34:51;;;;;;;4.35;2.65;;;;;;;19.31;46.92;101675.78;5053891;28;20049;-46
2023/03/30 10:37:25;;;;;;;4.97;2.67;;;;;;;19.30;46.79;101666.00;5053594;28;20593;-46
2023/03/30 10:39:54;;;;;;;4.28;2.50;;;;;;;19.31;46.88;101674.91;5053832;28;20048;-48
2023/03/30 10:42:25;;;;;;;5.00;2.55;;;;;;;19.31;46.98;101677.59;5053560;28;20052;-47
2023/03/30 10:44:57;;;;;;;4.72;2.10;;;;;;;19.31;46.82;101667.72;5053657;28;20053;-49
2023/03/30 10:47:36;;;;;;;4.40;2.20;;;;;;;19.31;46.98;101664.19;5053782;28;20045;-45
2023/03/30 10:50:22;;;;;;;2.92;2.00;;;;;;;19.33;46.77;101667.63;5053371;28;20040;-46
2023/03/30 10:53:05;;;;;;;4.35;2.10;;;;;;;19.32;46.89;101664.06;5052279;28;20056;-46
2023/03/30 10:55:35;;;;;;;4.40;2.13;;;;;;;19.34;46.76;101658.59;5051878;28;20423;-49
2023/03/30 10:58:18;;;;;;;4.40;2.15;;;;;;;19.33;46.74;101647.00;5053465;28;20048;-49
2023/03/30 11:01:20;;;;;;;4.85;2.10;;;;;;;19.33;46.85;101649.69;5053234;28;20045;-47
2023/03/30 11:03:56;;;;;;;5.70;2.90;;;;;;;19.34;47.28;101645.16;5053125;28;20045;-46
2023/03/30 11:06:37;;;;;;;5.38;2.00;;;;;;;19.35;47.05;101636.13;5053530;28;20518;-47
2023/03/30 11:09:13;;;;;;;3.45;1.92;;;;;;;19.34;47.40;101629.91;5053212;28;20041;-49
2023/03/30 11:12:02;;;;;;;3.10;1.70;;;;;;;19.35;47.38;101628.06;5053215;28;20049;-50
2023/03/30 11:15:02;;;;;;;5.57;2.22;;;;;;;19.34;47.35;101635.28;5053348;28;20052;-50
2023/03/30 11:17:48;;;;;;;5.05;2.03;;;;;;;19.36;47.69;101619.03;5052859;28;20396;-49
2023/03/30 11:20:23;;;;;;;4.82;1.92;;;;;;;19.36;47.99;101619.91;5051692;28;20048;-47
2023/03/30 11:22:58;;;;;;;4.13;2.40;;;;;;;19.36;47.83;101611.84;5052282;28;20052;-48
2023/03/30 11:25:33;;;;;;;4.90;2.67;;;;;;;19.37;47.56;101604.69;5052995;28;20052;-46
2023/03/30 11:28:13;;;;;;;5.22;2.40;;;;;;;19.36;47.84;101592.19;5053029;28;20391;-46
2023/03/30 11:30:42;;;;;;;5.15;2.20;;;;;;;19.39;47.97;101594.66;5053019;28;20045;-50
2023/03/30 11:33:28;;;;;;;4.28;2.15;;;;;;;19.39;48.11;101597.34;5052700;28;20052;-48
2023/03/30 11:36:22;;;;;;;6.40;2.75;;;;;;;19.39;48.26;101592.84;5052598;28;20053;-49
2023/03/30 11:38:59;;;;;;;6.15;2.22;;;;;;;19.39;48.72;101581.25;5052744;28;20056;-48
2023/03/30 11:41:35;;;;;;;7.15;3.42;;;;;;;19.39;49.51;101583.91;5052543;28;20045;-48
2023/03/30 11:44:03;;;;;;;9.40;4.50;;;;;;;19.36;49.08;101563.50;5052530;28;20495;-48
2023/03/30 11:46:54;;;;;;;6.43;2.95;;;;;;;19.36;48.91;101559.97;5052506;28;20512;-50
2023/03/30 11:49:55;;;;;;;4.25;2.47;;;;;;;19.37;48.55;101559.03;5051739;28;20048;-49
2023/03/30 11:52:51;;;;;;;5.53;2.58;;;;;;;19.35;48.25;101548.38;5052706;28;20060;-47
2023/03/30 11:55:33;;;;;;;3.65;2.13;;;;;;;19.37;48.22;101561.72;5052454;28;20059;-51
2023/03/30 11:58:13;;;;;;;4.18;2.50;;;;;;;19.36;48.11;101560.81;5052202;28;20514;-50
2023/03/30 12:00:46;;;;;;;4.57;2.10;;;;;;;19.37;48.07;101564.41;5052272;28;20056;-52
2023/03/30 12:03:34;;;;;;;3.78;2.17;;;;;;;19.36;48.01;101560.81;5060051;28;20487;-51
2023/03/30 12:06:10;;;;;;;3.55;1.98;;;;;;;19.36;48.11;101554.59;5059576;28;20076;-47
2023/03/30 12:09:09;;;;;;;4.03;1.80;;;;;;;19.38;47.99;101547.31;5052877;28;20052;-51